Time;durP1;ratioP1;P1;durP2;ratioP2;P2;SDS_P1;SDS_P2;PMS_P1;PMS_P2;Temp;Humidity;BMP_temperature;BMP_pressure;BME280_temperature;BME280_humidity;BME280_pressure;Samples;Min_cycle;Max_cycle;Signal;HPM_P1;HPM_P2
2022/01/26 00:06:08;;;;;;;144.77;55.23;;;;;;;2.56;80.01;103328.28;5029436;28;20167;-55
2022/01/26 00:08:33;;;;;;;141.70;55.97;;;;;;;2.59;80.22;103337.81;5028845;28;20309;-55
2022/01/26 00:10:58;;;;;;;151.40;56.73;;;;;;;2.57;80.00;103334.38;5028831;28;20504;-53
2022/01/26 00:13:24;;;;;;;146.37;55.33;;;;;;;2.59;80.20;103338.66;5029533;28;20436;-54
2022/01/26 00:15:50;;;;;;;150.20;57.47;;;;;;;2.54;80.13;103334.50;5030857;28;20052;-53
2022/01/26 00:18:17;;;;;;;149.20;57.77;;;;;;;2.55;80.08;103331.81;5029001;28;20040;-53
2022/01/26 00:20:52;;;;;;;157.90;57.47;;;;;;;2.53;79.94;103338.03;5028408;28;20103;-54
2022/01/26 00:25:58;;;;;;;156.57;58.17;;;;;;;2.51;80.01;103325.00;5029133;28;20034;-55
2022/01/26 00:38:54;;;;;;;155.17;56.27;;;;;;;2.54;80.19;103314.38;5027699;28;20392;-53
2022/01/26 00:41:32;;;;;;;153.80;58.37;;;;;;;2.52;80.14;103310.97;5028447;28;20037;-55
2022/01/26 00:44:00;;;;;;;155.33;57.93;;;;;;;2.52;80.17;103313.59;5023326;28;20465;-55
2022/01/26 00:46:26;;;;;;;157.47;57.37;;;;;;;2.52;80.27;103310.97;5028886;28;20342;-55
2022/01/26 00:48:52;;;;;;;152.73;56.67;;;;;;;2.50;80.45;103315.41;5028289;28;20910;-54
2022/01/26 00:51:20;;;;;;;162.63;58.40;;;;;;;2.45;80.70;103314.72;5028055;28;20040;-54
2022/01/26 00:54:06;;;;;;;157.20;59.60;;;;;;;2.46;80.56;103314.69;5029077;28;20447;-53
2022/01/26 00:56:31;;;;;;;164.57;60.30;;;;;;;2.44;80.47;103318.28;5024620;28;20485;-55
2022/01/26 00:58:57;;;;;;;162.63;60.00;;;;;;;2.42;80.48;103328.81;5030899;28;20026;-54
2022/01/26 01:01:23;;;;;;;162.70;59.93;;;;;;;2.41;80.67;103318.38;5028394;28;20300;-55
2022/01/26 01:03:48;;;;;;;159.73;58.93;;;;;;;2.43;80.92;103316.56;5028560;28;20055;-56
2022/01/26 01:06:24;;;;;;;155.17;57.73;;;;;;;2.42;80.81;103322.72;5027523;28;20161;-54
2022/01/26 01:08:50;;;;;;;156.13;60.90;;;;;;;2.41;80.77;103313.16;5028103;28;20021;-54
2022/01/26 01:11:16;;;;;;;150.40;57.17;;;;;;;2.41;80.97;103307.91;5028127;28;20018;-55
2022/01/26 01:13:43;;;;;;;153.50;56.90;;;;;;;2.39;81.01;103305.34;5027572;28;20064;-55
2022/01/26 01:16:13;;;;;;;157.03;58.43;;;;;;;2.31;81.04;103290.78;5026150;28;20037;-55
2022/01/26 01:21:56;;;;;;;161.60;56.97;;;;;;;2.36;81.03;103294.97;5028190;28;20037;-55
2022/01/26 01:29:30;;;;;;;155.93;57.17;;;;;;;2.39;81.27;103288.75;5025790;28;20393;-54
2022/01/26 01:31:58;;;;;;;157.43;58.10;;;;;;;2.42;81.33;103275.50;5027575;28;20544;-52
2022/01/26 01:34:35;;;;;;;153.60;57.30;;;;;;;2.39;81.34;103276.50;5028022;28;20473;-54
2022/01/26 01:37:05;;;;;;;146.83;55.53;;;;;;;2.37;81.29;103269.59;5026521;28;20112;-54
2022/01/26 01:39:32;;;;;;;149.63;56.60;;;;;;;2.36;81.38;103275.75;5027095;28;20028;-54
2022/01/26 01:41:58;;;;;;;154.57;56.17;;;;;;;2.34;81.33;103275.81;5027704;28;20370;-55
2022/01/26 01:44:23;;;;;;;149.73;57.43;;;;;;;2.35;81.16;103277.53;5024942;28;20049;-55
2022/01/26 01:46:49;;;;;;;144.83;54.83;;;;;;;2.35;81.33;103287.16;5027784;28;20394;-55
2022/01/26 01:49:15;;;;;;;149.73;55.13;;;;;;;2.34;81.52;103291.53;5026981;28;20470;-55
2022/01/26 01:51:48;;;;;;;148.70;55.37;;;;;;;2.38;81.48;103282.66;5026429;28;20539;-55
2022/01/26 01:54:16;;;;;;;148.23;56.17;;;;;;;2.36;81.55;103276.59;5023567;28;20037;-55
2022/01/26 01:56:56;;;;;;;138.37;52.40;;;;;;;2.36;81.37;103283.63;5026942;28;20037;-52
2022/01/26 01:59:29;;;;;;;146.60;54.23;;;;;;;2.34;81.39;103278.44;5026430;28;20040;-54
2022/01/26 02:01:54;;;;;;;137.97;54.17;;;;;;;2.31;81.36;103267.19;5027281;28;20036;-55
2022/01/26 02:04:20;;;;;;;135.60;54.07;;;;;;;2.28;81.41;103264.69;5027644;28;20446;-54
2022/01/26 02:06:45;;;;;;;138.50;55.00;;;;;;;2.24;81.43;103252.59;5027333;28;20033;-55
2022/01/26 02:09:11;;;;;;;133.37;53.97;;;;;;;2.20;81.22;103257.09;5027163;28;20036;-55
2022/01/26 02:11:45;;;;;;;134.73;52.37;;;;;;;2.21;80.53;103252.72;5028190;28;20093;-55
2022/01/26 02:14:17;;;;;;;133.27;51.80;;;;;;;2.21;80.42;103260.59;5027224;28;20033;-55
2022/01/26 02:16:58;;;;;;;130.37;51.07;;;;;;;2.20;80.56;103258.88;5026586;28;20040;-54
2022/01/26 03:02:08;;;;;;;145.80;55.23;;;;;;;2.15;81.52;103219.72;5031174;28;20041;-54
2022/01/26 03:04:41;;;;;;;137.83;54.50;;;;;;;2.18;81.35;103209.97;5030147;28;20116;-55
2022/01/26 03:07:17;;;;;;;141.93;53.83;;;;;;;2.18;81.31;103194.25;5030385;28;20025;-54
2022/01/26 03:09:48;;;;;;;142.47;53.80;;;;;;;2.16;81.63;103190.84;5029568;28;20017;-53
2022/01/26 03:12:22;;;;;;;143.27;54.13;;;;;;;2.13;81.66;103201.44;5030400;28;20091;-52
2022/01/26 03:14:56;;;;;;;146.17;55.57;;;;;;;2.13;81.32;103198.81;5030170;28;20636;-54
2022/01/26 03:19:50;;;;;;;144.00;56.33;;;;;;;2.22;81.35;103215.09;5029714;28;20103;-54
2022/01/26 03:28:14;;;;;;;146.50;54.95;;;;;;;2.25;81.57;103207.97;5029970;28;20032;-53
2022/01/26 03:35:51;;;;;;;145.50;53.60;;;;;;;2.28;81.75;103201.75;5023794;28;20043;-55
2022/01/26 03:38:27;;;;;;;148.00;55.63;;;;;;;2.30;81.61;103207.78;5029980;28;20021;-55
2022/01/26 03:43:57;;;;;;;142.63;54.13;;;;;;;2.36;81.76;103189.22;5026664;28;20413;-55
2022/01/26 03:46:23;;;;;;;148.67;57.13;;;;;;;2.36;81.64;103178.75;5026387;28;20562;-54
2022/01/26 03:48:49;;;;;;;143.37;54.53;;;;;;;2.35;81.46;103184.91;5027682;28;20050;-54
2022/01/26 03:51:14;;;;;;;148.87;56.43;;;;;;;2.37;81.42;103183.91;5028511;28;20043;-54
2022/01/26 03:53:39;;;;;;;149.60;55.07;;;;;;;2.38;81.38;103182.16;5027761;28;20100;-53
2022/01/26 03:56:04;;;;;;;150.40;56.50;;;;;;;2.37;81.21;103183.91;5028308;28;20424;-55
2022/01/26 03:58:30;;;;;;;144.87;53.53;;;;;;;2.37;81.67;103181.31;5028365;28;20029;-53
2022/01/26 04:00:55;;;;;;;149.13;56.27;;;;;;;2.43;81.38;103183.69;5028682;28;20031;-54
2022/01/26 04:03:20;;;;;;;152.97;58.07;;;;;;;2.39;81.61;103179.47;5028936;28;20029;-55
2022/01/26 04:05:45;;;;;;;145.10;54.77;;;;;;;2.41;81.61;103184.66;5027258;28;20029;-55
2022/01/26 04:08:26;;;;;;;148.33;56.17;;;;;;;2.35;81.29;103184.91;5029314;28;20060;-55
2022/01/26 04:13:16;;;;;;;155.63;58.10;;;;;;;2.22;81.31;103176.63;5028674;28;20030;-54
2022/01/26 04:15:42;;;;;;;151.07;57.13;;;;;;;2.15;81.73;103181.28;5029668;28;20083;-55
2022/01/26 04:18:11;;;;;;;154.90;56.67;;;;;;;2.11;81.92;103189.31;5028209;28;20025;-54
2022/01/26 04:20:41;;;;;;;158.27;57.33;;;;;;;2.06;81.94;103186.03;5028886;28;20036;-53
2022/01/26 04:23:19;;;;;;;159.33;57.20;;;;;;;1.97;81.99;103176.72;5027943;28;20636;-55
2022/01/26 04:25:46;;;;;;;156.03;56.17;;;;;;;1.97;82.14;103181.09;5023421;28;20579;-54
2022/01/26 04:28:18;;;;;;;163.07;57.20;;;;;;;1.93;82.02;103182.13;5027247;28;20068;-55
2022/01/26 04:30:44;;;;;;;157.30;57.70;;;;;;;1.90;82.26;103195.34;5028543;28;20094;-54
2022/01/26 04:33:09;;;;;;;165.47;57.70;;;;;;;1.89;82.51;103207.59;5029495;28;20041;-55
2022/01/26 04:35:35;;;;;;;159.70;54.70;;;;;;;1.90;82.46;103206.69;5028857;28;20061;-54
2022/01/26 04:40:42;;;;;;;162.30;56.33;;;;;;;1.89;82.63;103228.56;5027476;28;20029;-55
2022/01/26 04:43:15;;;;;;;161.63;57.73;;;;;;;1.88;82.79;103226.84;5028026;28;20508;-54
2022/01/26 04:45:40;;;;;;;168.47;56.97;;;;;;;1.89;82.96;103232.94;5028768;28;20033;-54
2022/01/26 04:48:06;;;;;;;167.70;57.87;;;;;;;1.90;83.10;103234.66;5029359;28;20029;-55
2022/01/26 04:50:31;;;;;;;164.43;56.03;;;;;;;1.89;83.12;103223.31;5027187;28;20092;-54
2022/01/26 04:52:56;;;;;;;164.13;58.57;;;;;;;1.85;83.16;103227.81;5029087;28;20029;-52
2022/01/26 04:55:21;;;;;;;168.53;57.43;;;;;;;1.84;82.96;103247.06;5028472;28;20091;-54
2022/01/26 04:57:47;;;;;;;166.90;57.27;;;;;;;1.84;83.05;103239.22;5028973;28;20022;-55
2022/01/26 05:00:12;;;;;;;168.50;57.97;;;;;;;1.83;83.11;103227.00;5027869;28;20034;-55
2022/01/26 05:02:38;;;;;;;167.57;58.80;;;;;;;1.80;83.38;103207.94;5028881;28;20113;-54
2022/01/26 05:05:03;;;;;;;170.13;57.83;;;;;;;1.78;83.44;103212.38;5028607;28;20120;-55
2022/01/26 05:07:29;;;;;;;164.17;56.83;;;;;;;1.75;83.23;103212.50;5029201;28;20037;-55
2022/01/26 05:09:54;;;;;;;168.43;56.23;;;;;;;1.76;83.54;103222.06;5027472;28;20087;-53
2022/01/26 05:12:19;;;;;;;168.50;56.80;;;;;;;1.70;83.70;103199.53;5028725;28;20033;-55
2022/01/26 05:14:47;;;;;;;173.67;59.60;;;;;;;1.73;83.78;103203.81;5028932;28;20266;-55
2022/01/26 05:17:13;;;;;;;168.93;57.50;;;;;;;1.70;83.69;103196.91;5028564;28;20036;-55
2022/01/26 05:19:39;;;;;;;167.87;58.23;;;;;;;1.69;83.67;103195.22;5026922;28;20025;-55
2022/01/26 05:22:05;;;;;;;168.83;58.73;;;;;;;1.68;83.76;103179.56;5028545;28;20041;-54
2022/01/26 05:24:30;;;;;;;164.57;56.70;;;;;;;1.67;83.82;103177.84;5027771;28;20529;-54
2022/01/26 05:26:55;;;;;;;170.97;58.17;;;;;;;1.67;84.07;103180.47;5028625;28;20033;-54
2022/01/26 05:29:21;;;;;;;172.37;58.37;;;;;;;1.66;83.94;103169.13;5027106;28;20025;-55
2022/01/26 05:31:46;;;;;;;166.43;55.37;;;;;;;1.63;84.19;103177.09;5028510;28;20033;-54
2022/01/26 05:34:11;;;;;;;173.10;58.00;;;;;;;1.65;84.12;103191.00;5031749;28;20047;-52
2022/01/26 05:36:37;;;;;;;174.80;58.27;;;;;;;1.66;84.21;103181.38;5034482;28;20341;-55
2022/01/26 05:39:03;;;;;;;177.43;58.47;;;;;;;1.64;84.50;103191.91;5028169;28;20486;-54
2022/01/26 05:41:28;;;;;;;177.97;59.10;;;;;;;1.62;84.49;103178.00;5029702;28;20091;-54
2022/01/26 05:43:54;;;;;;;173.50;58.70;;;;;;;1.64;84.53;103186.66;5027782;28;20201;-55
2022/01/26 05:46:27;;;;;;;176.50;57.13;;;;;;;1.64;84.61;103189.28;5028225;28;20025;-55
2022/01/26 05:48:55;;;;;;;165.23;55.40;;;;;;;1.62;84.80;103183.25;5027173;28;20025;-55
2022/01/26 05:51:20;;;;;;;176.70;56.83;;;;;;;1.63;84.94;103181.50;5028533;28;20029;-55
2022/01/26 05:53:45;;;;;;;178.13;57.57;;;;;;;1.62;85.03;103169.31;5027930;28;20037;-55
2022/01/26 05:56:11;;;;;;;170.07;58.00;;;;;;;1.62;84.99;103171.94;5028090;28;20029;-56
2022/01/26 05:58:36;;;;;;;177.17;58.30;;;;;;;1.62;85.06;103164.06;5027413;28;20029;-51
2022/01/26 06:01:04;;;;;;;166.90;56.53;;;;;;;1.60;85.14;103168.50;5028084;28;20025;-55
2022/01/26 06:03:30;;;;;;;171.67;57.93;;;;;;;1.61;85.25;103162.34;5030880;28;20040;-55
2022/01/26 06:05:55;;;;;;;174.33;57.77;;;;;;;1.52;85.06;103147.84;5030364;28;20048;-55
2022/01/26 06:08:21;;;;;;;173.67;61.00;;;;;;;1.59;85.15;103162.41;5031591;28;20081;-53
2022/01/26 06:10:47;;;;;;;169.10;58.70;;;;;;;1.59;85.19;103174.66;5033590;28;20087;-54
2022/01/26 06:13:13;;;;;;;178.13;61.13;;;;;;;1.61;85.08;103185.94;5028196;28;20057;-55
2022/01/26 06:15:38;;;;;;;172.70;59.43;;;;;;;1.62;85.14;103185.03;5031971;28;20508;-56
2022/01/26 06:18:03;;;;;;;180.07;61.47;;;;;;;1.63;85.26;103182.34;5031627;28;20030;-55
2022/01/26 06:20:28;;;;;;;173.17;58.17;;;;;;;1.63;85.30;103171.88;5030929;28;20212;-56
2022/01/26 06:22:54;;;;;;;174.60;61.37;;;;;;;1.62;85.50;103159.69;5031183;28;20108;-55
2022/01/26 06:25:19;;;;;;;178.40;62.90;;;;;;;1.63;85.33;103171.88;5031503;28;20029;-55
2022/01/26 06:27:45;;;;;;;173.57;58.77;;;;;;;1.63;85.70;103171.88;5031538;28;20473;-56
2022/01/26 06:30:11;;;;;;;181.10;60.50;;;;;;;1.61;85.58;103159.75;5031229;28;20022;-56
2022/01/26 06:32:38;;;;;;;175.33;60.23;;;;;;;1.61;86.00;103167.59;5029769;28;20112;-56
2022/01/26 06:35:08;;;;;;;177.57;60.43;;;;;;;1.61;86.10;103178.94;5028895;28;20079;-54
2022/01/26 06:37:33;;;;;;;182.87;59.67;;;;;;;1.54;85.89;103161.72;5025189;28;20064;-57
2022/01/26 06:39:58;;;;;;;178.07;59.37;;;;;;;1.62;85.95;103180.63;5027636;28;20069;-57
2022/01/26 06:42:28;;;;;;;178.17;59.17;;;;;;;1.64;86.05;103177.97;5030523;28;20033;-57
2022/01/26 06:45:10;;;;;;;186.37;62.13;;;;;;;1.62;86.16;103180.63;5031204;28;20070;-56
2022/01/26 06:50:00;;;;;;;180.43;58.60;;;;;;;1.66;86.11;103178.75;5030541;28;20115;-57
2022/01/26 06:52:25;;;;;;;178.23;59.87;;;;;;;1.67;86.27;103177.84;5030336;28;20111;-57
2022/01/26 06:54:51;;;;;;;177.47;59.90;;;;;;;1.67;86.62;103170.84;5031013;28;20029;-57
2022/01/26 06:57:16;;;;;;;182.50;60.23;;;;;;;1.69;86.59;103171.63;5030391;28;20029;-57
2022/01/26 06:59:41;;;;;;;185.70;63.47;;;;;;;1.69;86.75;103160.31;5029520;28;20021;-55
2022/01/26 07:02:07;;;;;;;178.17;60.87;;;;;;;1.70;86.32;103167.25;5028326;28;20037;-57
2022/01/26 07:04:32;;;;;;;177.63;58.70;;;;;;;1.71;86.83;103166.34;5030775;28;20029;-57
2022/01/26 07:06:58;;;;;;;182.27;61.87;;;;;;;1.71;86.79;103169.81;5030121;28;20029;-56
2022/01/26 07:09:23;;;;;;;176.37;57.97;;;;;;;1.72;86.84;103178.53;5029726;28;20474;-57
2022/01/26 07:11:48;;;;;;;186.23;61.90;;;;;;;1.73;87.04;103173.22;5030667;28;20029;-57
2022/01/26 07:20:01;;;;;;;191.33;63.27;;;;;;;1.73;87.48;103199.41;5027909;28;20124;-56
2022/01/26 07:22:27;;;;;;;189.27;63.43;;;;;;;1.74;87.53;103214.25;5030441;28;20100;-56
2022/01/26 07:24:52;;;;;;;195.40;63.97;;;;;;;1.73;87.68;103196.81;5029628;28;20109;-55
2022/01/26 07:27:17;;;;;;;184.97;62.17;;;;;;;1.72;87.96;103192.47;5029520;28;20401;-56
2022/01/26 07:29:43;;;;;;;194.40;64.80;;;;;;;1.71;88.03;103205.63;5025758;28;20025;-54
2022/01/26 07:32:08;;;;;;;196.07;63.63;;;;;;;1.71;88.15;103192.53;5029703;28;20033;-57
2022/01/26 07:34:33;;;;;;;201.13;65.27;;;;;;;1.72;88.47;103191.63;5029990;28;20033;-57
2022/01/26 07:37:04;;;;;;;194.23;63.60;;;;;;;1.73;88.70;103186.31;5028768;28;20108;-57
2022/01/26 07:39:41;;;;;;;205.57;67.23;;;;;;;1.74;88.65;103189.84;5027965;28;20045;-57
2022/01/26 07:42:07;;;;;;;203.97;66.47;;;;;;;1.79;88.91;103193.13;5029125;28;20037;-53
2022/01/26 07:44:33;;;;;;;211.43;64.10;;;;;;;1.79;89.13;103198.38;5029848;28;20404;-57
2022/01/26 07:46:58;;;;;;;212.57;67.23;;;;;;;1.79;89.24;103195.75;5030482;28;20091;-56
2022/01/26 07:49:23;;;;;;;207.27;64.50;;;;;;;1.81;89.36;103196.56;5028845;28;20314;-57
2022/01/26 07:51:50;;;;;;;211.57;66.50;;;;;;;1.80;89.34;103200.09;5030621;28;20033;-55
2022/01/26 07:54:18;;;;;;;201.30;63.23;;;;;;;1.83;89.54;103220.91;5029550;28;20542;-56
2022/01/26 07:56:44;;;;;;;204.03;64.43;;;;;;;1.85;89.99;103219.09;5030306;28;20037;-56
2022/01/26 07:59:09;;;;;;;207.47;64.30;;;;;;;1.85;89.87;103219.09;5023703;28;20394;-55
2022/01/26 08:01:35;;;;;;;198.03;62.80;;;;;;;1.88;90.05;103226.84;5029733;28;20507;-56
2022/01/26 08:04:01;;;;;;;198.83;60.97;;;;;;;1.90;90.04;103219.78;5029502;28;20056;-56
2022/01/26 08:06:26;;;;;;;207.00;63.73;;;;;;;1.90;90.07;103226.78;5029942;28;20044;-55
2022/01/26 08:08:51;;;;;;;206.63;64.70;;;;;;;1.87;89.99;103222.50;5028113;28;20469;-56
2022/01/26 08:11:16;;;;;;;209.93;65.30;;;;;;;1.85;90.47;103225.19;5027441;28;20033;-57
2022/01/26 08:13:42;;;;;;;217.37;66.20;;;;;;;1.84;90.18;103217.38;5029296;28;20087;-56
2022/01/26 08:16:07;;;;;;;206.13;63.77;;;;;;;1.85;90.53;103224.34;5029184;28;20033;-56
2022/01/26 08:18:32;;;;;;;203.27;62.07;;;;;;;1.86;90.83;103226.03;5028787;28;20078;-57
2022/01/26 08:21:05;;;;;;;202.67;65.70;;;;;;;1.85;90.65;103219.97;5028788;28;20112;-57
2022/01/26 08:23:31;;;;;;;212.57;65.20;;;;;;;1.88;90.97;103215.50;5027041;28;20029;-56
2022/01/26 08:25:56;;;;;;;206.20;63.07;;;;;;;1.91;90.97;103228.50;5028238;28;20054;-56
2022/01/26 08:28:27;;;;;;;207.33;63.93;;;;;;;1.91;90.97;103218.88;5028545;28;20021;-55
2022/01/26 08:30:53;;;;;;;205.27;65.13;;;;;;;1.92;91.02;103210.09;5025341;28;20037;-56
2022/01/26 08:33:18;;;;;;;203.73;67.20;;;;;;;1.94;91.17;103212.66;5028423;28;20136;-56
2022/01/26 08:35:45;;;;;;;198.07;63.23;;;;;;;1.95;91.23;103223.09;5028976;28;20024;-57
2022/01/26 08:38:10;;;;;;;198.27;63.77;;;;;;;1.93;91.15;103195.22;5029584;28;20022;-55
2022/01/26 08:40:36;;;;;;;184.07;59.50;;;;;;;1.97;90.93;103221.25;5027504;28;20083;-56
2022/01/26 08:43:02;;;;;;;192.67;62.20;;;;;;;1.98;90.80;103212.47;5028750;28;20029;-57
2022/01/26 08:45:28;;;;;;;183.40;60.20;;;;;;;2.01;90.91;103232.47;5029411;28;20268;-57
2022/01/26 08:47:53;;;;;;;187.80;60.07;;;;;;;2.03;90.99;103221.06;5028619;28;20168;-56
2022/01/26 08:50:19;;;;;;;180.83;60.03;;;;;;;2.05;90.99;103227.09;5027835;28;20550;-56
2022/01/26 08:52:44;;;;;;;170.27;59.07;;;;;;;2.08;90.70;103226.97;5028334;28;20041;-56
2022/01/26 08:55:10;;;;;;;163.77;57.10;;;;;;;2.10;90.62;103230.41;5029350;28;20032;-56
2022/01/26 08:57:36;;;;;;;157.93;56.50;;;;;;;2.13;90.88;103230.28;5028300;28;20497;-56
2022/01/26 09:00:05;;;;;;;163.40;58.03;;;;;;;2.14;90.61;103226.75;5027834;28;20393;-57
2022/01/26 09:02:30;;;;;;;163.37;55.73;;;;;;;2.16;90.59;103221.44;5028884;28;20204;-55
2022/01/26 09:04:55;;;;;;;164.50;56.17;;;;;;;2.18;90.72;103206.50;5028112;28;20333;-57
2022/01/26 09:07:21;;;;;;;158.23;55.47;;;;;;;2.18;90.36;103217.84;5028525;28;20389;-56
2022/01/26 09:09:47;;;;;;;168.07;59.53;;;;;;;2.20;90.54;103209.06;5027759;28;20093;-56
2022/01/26 09:12:16;;;;;;;173.33;57.70;;;;;;;2.19;90.63;103218.69;5028921;28;20060;-56
2022/01/26 09:14:42;;;;;;;;;;;;;;;2.23;90.46;103228.16;5022250;28;20029;-56
2022/01/26 09:17:10;;;;;;;166.53;58.30;;;;;;;2.23;90.39;103228.16;5028957;28;19909;-57
2022/01/26 09:19:35;;;;;;;165.73;57.17;;;;;;;2.23;90.48;103230.78;5026386;28;21147;-55
2022/01/26 09:22:07;;;;;;;171.77;57.20;;;;;;;2.24;90.50;103232.47;5028848;28;20017;-55
2022/01/26 09:24:34;;;;;;;162.47;57.70;;;;;;;2.26;90.66;103225.41;5025361;28;20476;-55
2022/01/26 09:27:01;;;;;;;171.33;57.50;;;;;;;2.26;90.67;103222.78;5026072;28;20033;-57
2022/01/26 09:29:26;;;;;;;170.63;59.03;;;;;;;2.26;90.39;103227.19;5026763;28;20144;-56
2022/01/26 09:31:52;;;;;;;161.50;59.07;;;;;;;2.28;90.82;103230.59;5030574;28;20107;-55
2022/01/26 09:34:20;;;;;;;161.17;58.40;;;;;;;2.29;90.44;103232.31;5033295;28;20025;-55
2022/01/26 09:36:46;;;;;;;157.60;55.80;;;;;;;2.30;90.38;103220.91;5027552;28;20401;-56
2022/01/26 09:39:16;;;;;;;164.17;56.63;;;;;;;2.32;90.50;103221.72;5027308;28;20022;-57
2022/01/26 09:41:43;;;;;;;157.83;57.00;;;;;;;2.36;90.49;103220.69;5031220;28;20025;-57
2022/01/26 09:44:09;;;;;;;147.20;55.47;;;;;;;2.36;90.44;103200.56;5031799;28;20068;-57
2022/01/26 09:46:34;;;;;;;153.67;57.33;;;;;;;2.37;90.25;103194.41;5032367;28;20061;-57
2022/01/26 09:49:01;;;;;;;152.60;57.53;;;;;;;2.38;90.30;103196.13;5030880;28;20033;-57
2022/01/26 09:51:27;;;;;;;153.73;55.27;;;;;;;2.40;90.08;103198.69;5032406;28;20045;-57
2022/01/26 09:54:05;;;;;;;144.07;56.70;;;;;;;2.41;90.07;103195.13;5029707;28;20025;-55
2022/01/26 09:56:31;;;;;;;157.97;56.00;;;;;;;2.43;89.92;103206.44;5032430;28;20121;-55
2022/01/26 09:58:56;;;;;;;148.60;53.63;;;;;;;2.45;89.93;103207.22;5031025;28;20021;-57
2022/01/26 10:01:22;;;;;;;139.17;53.97;;;;;;;2.45;89.98;103209.84;5032248;28;20148;-56
2022/01/26 10:03:49;;;;;;;147.73;55.47;;;;;;;2.46;90.13;103201.06;5031583;28;20497;-56
2022/01/26 10:06:25;;;;;;;140.00;52.60;;;;;;;2.44;89.77;103198.50;5030805;28;20029;-57
2022/01/26 10:09:02;;;;;;;136.37;53.20;;;;;;;2.45;89.63;103199.34;5030942;28;20108;-56
2022/01/26 10:19:24;;;;;;;132.53;52.53;;;;;;;2.49;89.42;103193.06;5030269;28;20037;-56
2022/01/26 10:21:52;;;;;;;127.77;50.13;;;;;;;2.51;89.67;103186.00;5028689;28;20028;-57
2022/01/26 10:24:20;;;;;;;134.40;50.40;;;;;;;2.50;89.40;103184.28;5026743;28;20029;-57
2022/01/26 10:26:48;;;;;;;123.57;49.90;;;;;;;2.52;89.17;103190.31;5031878;28;20029;-55
2022/01/26 10:29:15;;;;;;;133.87;51.00;;;;;;;2.54;88.94;103198.97;5025052;28;20040;-57
2022/01/26 10:31:40;;;;;;;126.83;48.90;;;;;;;2.54;89.17;103200.75;5030082;28;20393;-57
2022/01/26 10:34:12;;;;;;;129.60;49.70;;;;;;;2.55;89.32;103213.81;5029410;28;20028;-57
2022/01/26 10:37:00;;;;;;;119.60;45.77;;;;;;;2.59;89.56;103246.84;5028752;28;20025;-57
2022/01/26 10:39:35;;;;;;;116.80;46.33;;;;;;;2.61;89.45;103258.19;5020403;28;20099;-57
2022/01/26 10:42:06;;;;;;;107.97;44.20;;;;;;;2.63;89.37;103266.84;5031036;28;20064;-56
2022/01/26 10:44:38;;;;;;;108.73;42.40;;;;;;;2.65;89.27;103254.50;5029171;28;20025;-55
2022/01/26 10:47:06;;;;;;;110.97;44.47;;;;;;;2.65;89.17;103253.66;5031121;28;20036;-57
2022/01/26 10:52:20;;;;;;;104.17;43.13;;;;;;;2.66;89.20;103250.13;5023605;28;20037;-56
2022/01/26 10:54:46;;;;;;;103.67;42.77;;;;;;;2.67;89.11;103226.44;5030666;28;20497;-56
2022/01/26 10:57:12;;;;;;;104.33;44.53;;;;;;;2.69;89.44;103226.38;5030799;28;20279;-55
2022/01/26 10:59:40;;;;;;;105.63;43.90;;;;;;;2.66;89.24;103222.13;5028628;28;20270;-55
2022/01/26 11:02:07;;;;;;;98.60;41.40;;;;;;;2.70;89.34;103235.97;5020617;28;20109;-56
2022/01/26 11:04:34;;;;;;;106.13;44.57;;;;;;;2.69;89.36;103237.72;5028553;28;20076;-57
2022/01/26 11:07:01;;;;;;;99.00;43.30;;;;;;;2.69;89.25;103223.75;5027673;28;20497;-57
2022/01/26 11:09:30;;;;;;;99.37;43.93;;;;;;;2.70;89.25;103228.94;5028589;28;20033;-57
2022/01/26 11:12:16;;;;;;;95.32;40.53;;;;;;;2.74;89.11;103229.69;5025313;28;20022;-57
2022/01/26 11:14:45;;;;;;;104.33;43.60;;;;;;;2.73;89.19;103220.94;5025816;28;20029;-57
2022/01/26 11:17:22;;;;;;;103.38;42.40;;;;;;;2.73;89.10;103214.84;5029512;28;20048;-56
2022/01/26 11:19:48;;;;;;;97.00;42.73;;;;;;;2.75;89.36;103219.13;5029061;28;20041;-56
2022/01/26 11:22:14;;;;;;;99.50;43.33;;;;;;;2.78;89.48;103216.38;5030175;28;20056;-56
2022/01/26 11:24:48;;;;;;;103.03;43.00;;;;;;;2.79;89.25;103217.22;5029820;28;20029;-57
2022/01/26 11:27:16;;;;;;;99.23;43.60;;;;;;;2.83;89.38;103210.06;5029252;28;20554;-55
2022/01/26 11:29:46;;;;;;;98.20;41.37;;;;;;;2.83;89.25;103204.81;5031344;28;20017;-57
2022/01/26 11:32:27;;;;;;;96.77;42.37;;;;;;;2.86;89.13;103204.69;5029199;28;20033;-56
2022/01/26 11:34:54;;;;;;;99.33;43.10;;;;;;;2.87;89.38;103199.38;5033907;28;20021;-57
2022/01/26 11:37:51;;;;;;;88.80;41.23;;;;;;;2.90;89.37;103185.31;5029037;28;20481;-57
2022/01/26 11:46:09;;;;;;;96.00;40.97;;;;;;;2.96;89.08;103177.19;5027735;28;20036;-56
2022/01/26 11:48:34;;;;;;;97.40;42.67;;;;;;;2.98;89.14;103185.84;5024369;28;20072;-54
2022/01/26 11:51:01;;;;;;;96.77;43.17;;;;;;;3.01;88.98;103183.09;5028303;28;20053;-57
2022/01/26 11:53:28;;;;;;;92.30;42.00;;;;;;;3.02;89.15;103174.28;5029276;28;20025;-56
2022/01/26 11:56:02;;;;;;;91.57;42.77;;;;;;;3.02;88.77;103169.03;5027933;28;20025;-56
2022/01/26 11:58:29;;;;;;;88.30;41.63;;;;;;;3.04;88.95;103167.22;5028860;28;20025;-57
2022/01/26 12:03:34;;;;;;;92.23;42.60;;;;;;;3.09;89.07;103167.88;5025788;28;20037;-57
2022/01/26 12:06:01;;;;;;;92.60;42.10;;;;;;;3.08;88.84;103159.13;5029254;28;20029;-57
2022/01/26 12:08:28;;;;;;;92.63;43.73;;;;;;;3.09;88.68;103160.84;5029270;28;20029;-57
2022/01/26 12:10:55;;;;;;;88.47;42.83;;;;;;;3.10;88.63;103165.16;5025314;28;20021;-56
2022/01/26 12:13:25;;;;;;;87.90;41.87;;;;;;;3.11;88.60;103166.03;5029320;28;20034;-57
2022/01/26 12:16:04;;;;;;;90.03;40.63;;;;;;;3.11;88.62;103168.66;5029800;28;20020;-57
2022/01/26 12:33:31;;;;;;;94.67;40.57;;;;;;;3.20;88.66;103170.91;5027591;28;20128;-57
2022/01/26 12:38:41;;;;;;;91.73;41.27;;;;;;;3.24;88.42;103169.00;5021456;28;20040;-57
2022/01/26 12:43:48;;;;;;;94.00;43.07;;;;;;;3.27;88.43;103177.59;5028110;28;20037;-56
2022/01/26 12:46:21;;;;;;;88.50;41.80;;;;;;;3.28;88.41;103167.94;5029089;28;20025;-55
2022/01/26 12:49:01;;;;;;;93.37;42.50;;;;;;;3.25;88.42;103155.81;5028531;28;20130;-56
2022/01/26 12:51:28;;;;;;;98.27;42.83;;;;;;;3.31;88.30;103165.19;5028895;28;20124;-56
2022/01/26 12:53:59;;;;;;;91.00;42.07;;;;;;;3.31;88.48;103163.41;5028667;28;20056;-56
2022/01/26 12:56:27;;;;;;;97.83;42.50;;;;;;;3.33;88.33;103155.47;5028949;28;20104;-56
2022/01/26 12:59:00;;;;;;;94.60;41.10;;;;;;;3.34;88.38;103152.75;5027635;28;20022;-55
2022/01/26 13:01:26;;;;;;;91.27;42.33;;;;;;;3.36;88.44;103145.66;5023241;28;20033;-56
2022/01/26 13:03:56;;;;;;;86.23;40.17;;;;;;;3.37;88.10;103149.16;5028395;28;20029;-56
2022/01/26 13:06:24;;;;;;;87.50;41.03;;;;;;;3.40;87.98;103138.50;5022455;28;20341;-56
2022/01/26 13:08:52;;;;;;;96.13;41.90;;;;;;;3.36;88.16;103129.91;5026667;28;20033;-57
2022/01/26 13:11:41;;;;;;;89.80;39.80;;;;;;;3.37;88.03;103113.22;5021963;28;20045;-57
2022/01/26 13:14:19;;;;;;;100.15;42.60;;;;;;;3.49;88.03;103127.63;5025132;28;20045;-55
2022/01/26 13:17:56;;;;;;;99.87;43.63;;;;;;;3.50;88.15;103129.31;5028779;28;20021;-57
2022/01/26 13:26:16;;;;;;;99.40;43.00;;;;;;;3.43;88.43;103126.09;5023982;28;20794;-57
2022/01/26 13:31:47;;;;;;;100.87;43.30;;;;;;;3.49;88.41;103132.00;5026810;28;19909;-56
2022/01/26 13:52:40;;;;;;;104.60;46.07;;;;;;;3.47;88.40;103113.69;5028300;28;20038;-56
2022/01/26 14:00:16;;;;;;;113.33;45.90;;;;;;;3.46;88.21;103111.09;5026993;28;20029;-56
2022/01/26 14:02:41;;;;;;;110.07;46.95;;;;;;;3.45;88.07;103114.66;5026033;28;20064;-54
2022/01/26 14:05:07;;;;;;;103.40;45.97;;;;;;;3.45;88.23;103101.53;5028194;28;20086;-57
2022/01/26 14:07:32;;;;;;;104.60;46.30;;;;;;;3.46;88.28;103100.59;5027729;28;20025;-54